Time;durP1;ratioP1;P1;durP2;ratioP2;P2;SDS_P1;SDS_P2;PMS_P1;PMS_P2;Temp;Humidity;BMP_temperature;BMP_pressure;BME280_temperature;BME280_humidity;BME280_pressure;Samples;Min_cycle;Max_cycle;Signal;HPM_P1;HPM_P2
2023/05/07 00:00:18;;;;;;;20.48;12.82;;;15.20;99.90;;;;;;5096823;28;20044;-41
2023/05/07 00:02:45;;;;;;;21.17;11.02;;;15.20;99.90;;;;;;5108762;28;20043;-42
2023/05/07 00:05:11;;;;;;;25.02;12.35;;;15.30;99.90;;;;;;5107552;28;20605;-41
2023/05/07 00:07:37;;;;;;;21.05;12.18;;;15.20;99.90;;;;;;5094605;27;20468;-61
2023/05/07 00:10:03;;;;;;;22.70;13.85;;;15.30;99.90;;;;;;5092806;28;20031;-39
2023/05/07 00:12:33;;;;;;;21.77;12.77;;;15.30;99.90;;;;;;5093986;28;20034;-40
2023/05/07 00:15:00;;;;;;;21.40;13.02;;;15.30;99.90;;;;;;5108242;28;20488;-37
2023/05/07 00:17:25;;;;;;;22.88;13.57;;;15.30;99.90;;;;;;5105135;28;20383;-40
2023/05/07 00:19:51;;;;;;;23.63;13.40;;;15.40;99.90;;;;;;5104099;28;20028;-38
2023/05/07 00:22:17;;;;;;;22.58;13.30;;;15.40;99.90;;;;;;5099170;28;20025;-40
2023/05/07 00:24:43;;;;;;;19.88;12.65;;;15.40;99.90;;;;;;5104665;28;20381;-40
2023/05/07 00:27:08;;;;;;;20.60;12.45;;;15.30;99.90;;;;;;5112342;28;20061;-40
2023/05/07 00:29:34;;;;;;;17.27;10.88;;;15.40;99.90;;;;;;5111960;28;20023;-40
2023/05/07 00:32:00;;;;;;;19.55;11.18;;;15.40;99.90;;;;;;5112252;28;20031;-39
2023/05/07 00:34:25;;;;;;;16.80;10.93;;;15.40;99.90;;;;;;5113275;28;20377;-40
2023/05/07 00:36:51;;;;;;;24.58;11.25;;;15.50;99.90;;;;;;5097079;28;20538;-40
2023/05/07 00:39:16;;;;;;;17.80;10.27;;;15.50;99.90;;;;;;5096433;28;20422;-38
2023/05/07 00:41:42;;;;;;;14.77;9.27;;;15.40;99.90;;;;;;5098789;28;20116;-38
2023/05/07 00:44:08;;;;;;;18.60;9.65;;;15.40;99.90;;;;;;5103341;28;20024;-38
2023/05/07 00:46:34;;;;;;;16.58;9.98;;;15.40;99.90;;;;;;5102223;28;20534;-38
2023/05/07 00:49:00;;;;;;;15.70;9.93;;;15.40;99.90;;;;;;5092541;28;20025;-55
2023/05/07 00:51:27;;;;;;;14.00;9.65;;;15.40;99.90;;;;;;5095023;28;20050;-37
2023/05/07 00:53:53;;;;;;;20.53;10.67;;;15.40;99.90;;;;;;5092319;28;20107;-38
2023/05/07 00:56:23;;;;;;;13.77;8.55;;;15.40;99.90;;;;;;5095013;28;20039;-38
2023/05/07 00:58:49;;;;;;;12.95;8.43;;;15.40;99.90;;;;;;5104472;28;20031;-39
2023/05/07 01:01:18;;;;;;;22.10;9.25;;;15.40;99.90;;;;;;5114357;28;20103;-40
2023/05/07 01:03:43;;;;;;;14.30;8.15;;;15.30;99.90;;;;;;5116341;28;20042;-38
2023/05/07 01:06:12;;;;;;;13.80;8.52;;;15.40;99.90;;;;;;5104390;28;20019;-37
2023/05/07 01:08:41;;;;;;;11.48;8.52;;;15.30;99.90;;;;;;5096321;28;20020;-39
2023/05/07 01:11:08;;;;;;;12.75;7.50;;;15.30;99.90;;;;;;5095861;28;20493;-36
2023/05/07 01:13:35;;;;;;;10.68;8.23;;;15.30;99.90;;;;;;5096317;28;20504;-44
2023/05/07 01:16:01;;;;;;;10.77;7.10;;;15.30;99.90;;;;;;5106009;28;20388;-39
2023/05/07 01:18:26;;;;;;;13.18;7.40;;;15.30;99.90;;;;;;5115852;28;20020;-37
2023/05/07 01:20:54;;;;;;;10.80;7.28;;;15.30;99.90;;;;;;5102848;28;20031;-40
2023/05/07 01:23:20;;;;;;;10.27;6.55;;;15.30;99.90;;;;;;5096337;28;20209;-39
2023/05/07 01:25:52;;;;;;;12.02;7.07;;;15.20;99.90;;;;;;5097160;28;20375;-38
2023/05/07 01:28:18;;;;;;;10.27;6.47;;;15.20;99.90;;;;;;5116329;28;20030;-39
2023/05/07 01:30:49;;;;;;;14.18;6.85;;;15.20;99.90;;;;;;5105363;28;20027;-38
2023/05/07 01:33:21;;;;;;;10.13;6.97;;;15.20;99.90;;;;;;5095919;28;20028;-37
2023/05/07 01:35:51;;;;;;;12.38;6.20;;;15.30;99.90;;;;;;5104488;28;20061;-39
2023/05/07 01:38:17;;;;;;;14.65;7.25;;;15.30;99.90;;;;;;5116038;28;20020;-40
2023/05/07 01:40:43;;;;;;;14.30;6.83;;;15.30;99.90;;;;;;5105745;28;20103;-39
2023/05/07 01:43:10;;;;;;;9.35;6.78;;;15.30;99.90;;;;;;5115972;28;20051;-51
2023/05/07 01:45:36;;;;;;;11.98;6.53;;;15.20;99.90;;;;;;5113567;28;20539;-41
2023/05/07 01:48:03;;;;;;;11.18;7.03;;;15.30;99.90;;;;;;5116027;28;20024;-40
2023/05/07 01:50:30;;;;;;;8.20;6.18;;;15.20;99.90;;;;;;5112866;28;20527;-40
2023/05/07 01:53:36;;;;;;;9.90;6.60;;;15.20;99.90;;;;;;5115005;28;20548;-45
2023/05/07 01:56:02;;;;;;;8.95;6.60;;;15.20;99.90;;;;;;5115704;28;20031;-40
2023/05/07 01:58:27;;;;;;;9.77;6.72;;;15.20;99.90;;;;;;5114826;28;20048;-38
2023/05/07 02:00:53;;;;;;;8.95;6.78;;;15.20;99.90;;;;;;5114316;28;20027;-39
2023/05/07 02:03:19;;;;;;;9.07;6.82;;;15.30;99.90;;;;;;5110364;28;20018;-40
2023/05/07 02:05:44;;;;;;;12.70;6.80;;;15.20;99.90;;;;;;5106395;28;20030;-39
2023/05/07 02:08:10;;;;;;;8.82;6.72;;;15.20;99.90;;;;;;5115774;28;20026;-40
2023/05/07 02:10:36;;;;;;;13.38;6.93;;;15.20;99.90;;;;;;5114086;28;20027;-71
2023/05/07 02:13:01;;;;;;;12.30;6.75;;;15.20;99.90;;;;;;5114144;28;20110;-39
2023/05/07 02:15:27;;;;;;;8.52;6.60;;;15.20;99.90;;;;;;5113264;28;20073;-34
2023/05/07 02:18:04;;;;;;;12.65;6.25;;;15.30;99.90;;;;;;5113785;28;20016;-40
2023/05/07 02:20:30;;;;;;;8.50;5.90;;;15.30;99.90;;;;;;5108255;28;20032;-40
2023/05/07 02:22:56;;;;;;;8.38;6.50;;;15.30;99.90;;;;;;5094531;28;20491;-43
2023/05/07 02:25:21;;;;;;;8.70;6.55;;;15.30;99.90;;;;;;5095362;28;20469;-38
2023/05/07 02:27:47;;;;;;;7.78;6.40;;;15.30;99.90;;;;;;5103520;28;20027;-39
2023/05/07 02:30:14;;;;;;;9.52;6.28;;;15.20;99.90;;;;;;5111584;28;20080;-38
2023/05/07 02:32:39;;;;;;;11.25;7.05;;;15.20;99.90;;;;;;5106817;28;20027;-39
2023/05/07 02:35:05;;;;;;;7.13;6.28;;;15.30;99.90;;;;;;5101122;28;20476;-34
2023/05/07 02:37:31;;;;;;;13.13;6.25;;;15.30;99.90;;;;;;5092776;28;20028;-39
2023/05/07 02:39:56;;;;;;;7.35;6.13;;;15.30;99.90;;;;;;5102962;28;20015;-40
2023/05/07 02:42:22;;;;;;;11.40;6.65;;;15.30;99.90;;;;;;5113654;28;20115;-40
2023/05/07 02:44:48;;;;;;;11.15;6.85;;;15.20;99.90;;;;;;5094298;28;20445;-39
2023/05/07 02:47:14;;;;;;;8.65;5.93;;;15.20;99.90;;;;;;5097359;28;20427;-39
2023/05/07 02:50:24;;;;;;;8.40;6.55;;;15.20;99.90;;;;;;5094324;28;20476;-42
2023/05/07 02:52:50;;;;;;;6.32;5.72;;;15.20;99.90;;;;;;5094080;28;20035;-40
2023/05/07 02:55:15;;;;;;;11.52;6.30;;;15.20;99.90;;;;;;5093037;28;20024;-39
2023/05/07 02:57:41;;;;;;;8.05;6.00;;;15.30;99.90;;;;;;5107477;28;20051;-39
2023/05/07 03:00:14;;;;;;;11.27;6.53;;;15.30;99.90;;;;;;5113516;28;20054;-39
2023/05/07 03:02:40;;;;;;;10.27;6.28;;;15.30;99.90;;;;;;5113190;28;20024;-38
2023/05/07 03:05:06;;;;;;;8.32;6.22;;;15.30;99.90;;;;;;5112819;28;20024;-39
2023/05/07 03:07:31;;;;;;;7.25;6.50;;;15.30;99.90;;;;;;5093197;28;20027;-39
2023/05/07 03:09:57;;;;;;;8.35;6.82;;;15.20;99.90;;;;;;5093304;28;20503;-39
2023/05/07 03:12:23;;;;;;;8.10;5.93;;;15.20;99.90;;;;;;5114255;28;20032;-38
2023/05/07 03:14:48;;;;;;;9.00;6.20;;;15.10;99.90;;;;;;5114193;28;20037;-38
2023/05/07 03:17:15;;;;;;;8.48;6.05;;;15.10;99.90;;;;;;5110431;28;20111;-39
2023/05/07 03:19:41;;;;;;;7.40;6.53;;;15.10;99.90;;;;;;5113986;28;20019;-38
2023/05/07 03:22:07;;;;;;;7.28;6.05;;;15.10;99.90;;;;;;5099635;28;20107;-35
2023/05/07 03:24:32;;;;;;;8.70;6.07;;;15.10;99.90;;;;;;5097051;28;20023;-49
2023/05/07 03:26:58;;;;;;;9.35;6.32;;;15.10;99.90;;;;;;5093095;28;20396;-39
2023/05/07 03:29:24;;;;;;;6.32;5.40;;;15.00;99.90;;;;;;5093822;28;20046;-40
2023/05/07 03:31:49;;;;;;;9.48;6.70;;;15.00;99.90;;;;;;5102422;28;20038;-39
2023/05/07 03:34:16;;;;;;;7.20;6.38;;;15.00;99.90;;;;;;5110004;28;20027;-59
2023/05/07 03:36:42;;;;;;;9.13;6.23;;;14.90;99.90;;;;;;5112326;28;20102;-37
2023/05/07 03:39:08;;;;;;;11.13;6.88;;;14.90;99.90;;;;;;5111461;28;20683;-38
2023/05/07 03:41:34;;;;;;;11.10;5.90;;;14.90;99.90;;;;;;5093433;28;20023;-38
2023/05/07 03:43:59;;;;;;;7.20;6.10;;;14.80;99.90;;;;;;5096106;28;20476;-39
2023/05/07 03:46:26;;;;;;;8.63;6.13;;;14.90;99.90;;;;;;5093692;28;20088;-39
2023/05/07 03:48:52;;;;;;;12.32;6.72;;;14.80;99.90;;;;;;5103676;28;20063;-40
2023/05/07 03:51:17;;;;;;;9.13;6.45;;;14.80;99.90;;;;;;5107230;28;20098;-38
2023/05/07 03:53:43;;;;;;;11.80;6.50;;;14.80;99.90;;;;;;5096381;28;20030;-38
2023/05/07 03:56:09;;;;;;;9.77;6.70;;;14.80;99.90;;;;;;5112043;28;20032;-40
2023/05/07 03:58:35;;;;;;;12.93;6.47;;;14.80;99.90;;;;;;5111906;28;20048;-39
2023/05/07 04:01:00;;;;;;;15.00;7.40;;;14.80;99.90;;;;;;5113596;28;20024;-39
2023/05/07 04:03:26;;;;;;;10.38;7.25;;;14.80;99.90;;;;;;5110656;28;20020;-38
2023/05/07 04:05:52;;;;;;;13.23;7.43;;;14.80;99.90;;;;;;5113277;28;20047;-39
2023/05/07 04:08:17;;;;;;;10.75;7.47;;;14.90;99.90;;;;;;5098616;28;20425;-38
2023/05/07 04:10:43;;;;;;;12.70;7.32;;;14.80;99.90;;;;;;5092996;28;20055;-40
2023/05/07 04:13:09;;;;;;;11.43;7.93;;;14.90;99.90;;;;;;5105924;28;20545;-38
2023/05/07 04:15:36;;;;;;;7.93;6.55;;;14.90;99.90;;;;;;5113212;28;20023;-39
2023/05/07 04:18:01;;;;;;;11.20;7.28;;;14.90;99.90;;;;;;5112306;28;20031;-36
2023/05/07 04:20:27;;;;;;;10.32;6.93;;;14.90;99.90;;;;;;5099038;28;20110;-39
2023/05/07 04:22:53;;;;;;;9.57;6.70;;;14.90;99.90;;;;;;5096073;28;20039;-37
2023/05/07 04:25:18;;;;;;;11.65;6.43;;;14.90;99.90;;;;;;5102921;28;20065;-40
2023/05/07 04:27:44;;;;;;;11.75;7.40;;;14.90;99.90;;;;;;5107676;28;20496;-39
2023/05/07 04:30:10;;;;;;;12.13;7.57;;;15.00;99.90;;;;;;5110366;28;20036;-39
2023/05/07 04:32:37;;;;;;;13.38;8.57;;;15.00;99.90;;;;;;5097556;28;20031;-40
2023/05/07 04:35:03;;;;;;;15.50;8.05;;;15.00;99.90;;;;;;5097187;28;20048;-40
2023/05/07 04:37:28;;;;;;;13.23;7.80;;;15.00;99.90;;;;;;5107190;28;20030;-39
2023/05/07 04:39:54;;;;;;;10.40;7.90;;;15.00;99.90;;;;;;5117285;28;20384;-40
2023/05/07 04:42:20;;;;;;;12.13;7.35;;;15.10;99.90;;;;;;5104231;28;20030;-38
2023/05/07 04:44:45;;;;;;;12.75;8.35;;;15.10;99.90;;;;;;5096669;28;20434;-40
2023/05/07 04:47:12;;;;;;;11.25;8.13;;;15.10;99.90;;;;;;5096726;28;20547;-40
2023/05/07 04:49:38;;;;;;;11.40;7.93;;;15.10;99.90;;;;;;5096591;28;20035;-40
2023/05/07 04:52:04;;;;;;;11.25;7.97;;;15.10;99.90;;;;;;5100246;28;20031;-42
2023/05/07 04:54:30;;;;;;;12.13;8.93;;;15.10;99.90;;;;;;5114552;28;20517;-43
2023/05/07 04:56:56;;;;;;;12.98;8.82;;;15.10;99.90;;;;;;5098611;28;20027;-39
2023/05/07 04:59:22;;;;;;;15.07;9.80;;;15.10;99.90;;;;;;5102057;28;20127;-40
2023/05/07 05:01:48;;;;;;;15.40;9.52;;;15.20;99.90;;;;;;5108305;28;20020;-44
2023/05/07 05:04:13;;;;;;;19.38;11.10;;;15.20;99.90;;;;;;5098525;28;20032;-39
2023/05/07 05:06:39;;;;;;;14.05;10.30;;;15.20;99.90;;;;;;5096134;28;20415;-46
2023/05/07 05:09:05;;;;;;;11.25;8.57;;;15.20;99.90;;;;;;5109896;28;20876;-40
2023/05/07 05:11:31;;;;;;;14.30;9.82;;;15.30;99.90;;;;;;5098806;28;20123;-35
2023/05/07 05:13:58;;;;;;;14.63;9.50;;;15.20;99.90;;;;;;5096513;28;20062;-38
2023/05/07 05:16:24;;;;;;;14.20;9.63;;;15.20;99.90;;;;;;5102757;28;20028;-39
2023/05/07 05:18:51;;;;;;;12.32;8.82;;;15.30;99.90;;;;;;5107655;28;20476;-39
2023/05/07 05:21:17;;;;;;;15.52;9.73;;;15.30;99.90;;;;;;5114105;28;20095;-44
2023/05/07 05:23:43;;;;;;;14.55;10.07;;;15.30;99.90;;;;;;5103068;28;20094;-39
2023/05/07 05:26:08;;;;;;;17.13;10.20;;;15.30;99.90;;;;;;5106488;28;20015;-39
2023/05/07 05:28:34;;;;;;;13.50;9.60;;;15.40;99.90;;;;;;5115634;27;20077;-37
2023/05/07 05:31:00;;;;;;;14.27;9.88;;;15.50;99.90;;;;;;5109488;28;20028;-38
2023/05/07 05:33:25;;;;;;;13.13;9.30;;;15.60;99.90;;;;;;5095912;28;20028;-40
2023/05/07 05:35:51;;;;;;;15.57;10.30;;;15.50;99.90;;;;;;5098665;28;20031;-40
2023/05/07 05:38:17;;;;;;;15.77;9.93;;;15.60;99.90;;;;;;5096139;28;20052;-41
2023/05/07 05:40:42;;;;;;;15.32;9.93;;;15.70;99.90;;;;;;5094106;28;20031;-36
2023/05/07 05:43:08;;;;;;;13.93;10.07;;;15.60;99.90;;;;;;5109904;28;20391;-41
2023/05/07 05:45:33;;;;;;;13.18;9.18;;;15.60;99.90;;;;;;5106393;28;20087;-40
2023/05/07 05:48:00;;;;;;;12.20;9.75;;;15.50;99.90;;;;;;5113110;28;20028;-40
2023/05/07 05:50:25;;;;;;;20.45;10.77;;;15.50;99.90;;;;;;5113399;28;20506;-40
2023/05/07 05:52:51;;;;;;;14.18;9.82;;;15.40;99.90;;;;;;5112843;28;20024;-42
2023/05/07 05:55:17;;;;;;;15.35;9.93;;;15.40;99.90;;;;;;5097975;28;20028;-39
2023/05/07 05:57:42;;;;;;;16.30;10.00;;;15.50;99.90;;;;;;5109443;28;20476;-46
2023/05/07 06:00:09;;;;;;;20.88;10.43;;;15.50;99.90;;;;;;5111876;28;20048;-52
2023/05/07 06:02:35;;;;;;;15.13;9.45;;;15.50;99.90;;;;;;5100240;28;20540;-40
2023/05/07 06:05:00;;;;;;;18.17;9.45;;;15.50;99.90;;;;;;5109617;28;20165;-41
2023/05/07 06:07:26;;;;;;;12.90;9.10;;;15.50;99.90;;;;;;5113354;28;20027;-42
2023/05/07 06:09:51;;;;;;;12.85;9.05;;;15.50;99.90;;;;;;5111449;28;20031;-40
2023/05/07 06:12:17;;;;;;;15.85;10.02;;;15.60;99.90;;;;;;5095086;28;20039;-39
2023/05/07 06:14:43;;;;;;;20.27;9.55;;;15.60;99.90;;;;;;5093851;28;20114;-41
2023/05/07 06:17:09;;;;;;;17.58;10.55;;;15.70;99.90;;;;;;5094537;28;20055;-40
2023/05/07 06:19:35;;;;;;;15.40;9.00;;;15.70;99.90;;;;;;5094848;28;20067;-41
2023/05/07 06:22:01;;;;;;;13.77;9.20;;;15.70;99.90;;;;;;5094878;28;20024;-41
2023/05/07 06:24:27;;;;;;;17.80;10.57;;;15.70;99.90;;;;;;5095440;28;20081;-43
2023/05/07 06:26:53;;;;;;;16.15;9.45;;;15.70;99.90;;;;;;5096119;28;20492;-40
2023/05/07 06:29:18;;;;;;;15.48;9.82;;;15.70;99.90;;;;;;5115113;28;20051;-40
2023/05/07 06:31:44;;;;;;;16.23;10.32;;;15.70;99.90;;;;;;5101797;28;20559;-39
2023/05/07 06:34:13;;;;;;;17.23;10.20;;;15.80;99.90;;;;;;5094069;28;20500;-40
2023/05/07 06:36:40;;;;;;;17.17;9.85;;;15.70;99.90;;;;;;5094350;28;20369;-40
2023/05/07 06:39:05;;;;;;;17.73;11.18;;;15.70;99.90;;;;;;5097742;28;20521;-40
2023/05/07 06:41:31;;;;;;;16.20;10.45;;;15.80;99.90;;;;;;5098020;28;20090;-42
2023/05/07 06:43:57;;;;;;;16.73;10.40;;;15.80;99.90;;;;;;5110456;27;20039;-40
2023/05/07 06:46:22;;;;;;;16.90;10.95;;;15.80;99.90;;;;;;5105201;28;20026;-43
2023/05/07 06:48:48;;;;;;;14.70;9.88;;;15.80;99.90;;;;;;5114781;28;20027;-40
2023/05/07 06:51:14;;;;;;;15.48;10.90;;;15.80;99.90;;;;;;5113270;28;20018;-40
2023/05/07 06:53:40;;;;;;;20.30;10.65;;;15.80;99.90;;;;;;5100163;28;20027;-41
2023/05/07 06:56:06;;;;;;;15.68;10.43;;;15.80;99.90;;;;;;5108310;28;20035;-39
2023/05/07 06:58:31;;;;;;;16.67;10.35;;;15.80;99.90;;;;;;5113344;28;20488;-40
2023/05/07 07:00:57;;;;;;;16.75;9.48;;;15.90;99.90;;;;;;5110980;28;20520;-41
2023/05/07 07:03:23;;;;;;;17.20;10.55;;;15.90;99.90;;;;;;5096999;28;20034;-40
2023/05/07 07:05:52;;;;;;;14.43;10.25;;;16.00;99.90;;;;;;5093509;28;20388;-41
2023/05/07 07:08:17;;;;;;;17.52;9.77;;;16.00;99.90;;;;;;5112507;28;20019;-40
2023/05/07 07:10:43;;;;;;;18.65;9.32;;;16.00;99.90;;;;;;5105770;28;20085;-45
2023/05/07 07:13:09;;;;;;;16.92;10.48;;;16.10;99.90;;;;;;5104977;27;20099;-38
2023/05/07 07:15:34;;;;;;;22.85;10.82;;;16.20;99.90;;;;;;5100448;28;20119;-39
2023/05/07 07:18:00;;;;;;;18.25;11.27;;;16.30;99.90;;;;;;5104036;28;20027;-39
2023/05/07 07:20:26;;;;;;;16.63;10.18;;;16.40;99.90;;;;;;5096886;28;20016;-38
2023/05/07 07:22:51;;;;;;;17.85;10.48;;;16.50;99.90;;;;;;5099071;28;20103;-40
2023/05/07 07:25:17;;;;;;;19.50;9.98;;;16.60;99.90;;;;;;5093813;28;20036;-41
2023/05/07 07:27:43;;;;;;;16.40;10.05;;;16.60;99.90;;;;;;5113525;28;20020;-38
2023/05/07 07:30:08;;;;;;;13.95;9.30;;;16.60;99.90;;;;;;5093754;28;20481;-42
2023/05/07 07:32:34;;;;;;;11.95;8.35;;;16.80;99.90;;;;;;5106465;28;20027;-43
2023/05/07 07:35:00;;;;;;;16.05;9.45;;;16.90;99.90;;;;;;5107555;28;20024;-40
2023/05/07 07:37:26;;;;;;;18.73;9.75;;;17.10;99.90;;;;;;5100806;28;20020;-40
2023/05/07 07:39:51;;;;;;;12.90;9.00;;;17.20;99.90;;;;;;5094559;28;20032;-42
2023/05/07 07:42:18;;;;;;;16.55;9.80;;;17.10;99.90;;;;;;5106211;28;20027;-42
2023/05/07 07:44:43;;;;;;;13.90;9.05;;;17.10;99.90;;;;;;5112270;28;20391;-44
2023/05/07 07:47:09;;;;;;;12.98;8.55;;;17.10;99.90;;;;;;5099304;28;20020;-43
2023/05/07 07:49:35;;;;;;;16.73;8.45;;;17.00;99.90;;;;;;5103388;28;20024;-41
2023/05/07 07:52:00;;;;;;;14.88;8.65;;;17.10;99.90;;;;;;5096114;28;20377;-41
2023/05/07 07:54:26;;;;;;;13.48;9.25;;;17.10;99.90;;;;;;5108962;28;20464;-39
2023/05/07 07:56:52;;;;;;;15.85;9.65;;;17.10;99.90;;;;;;5112990;28;20024;-41
2023/05/07 07:59:18;;;;;;;12.18;8.18;;;17.10;99.90;;;;;;5106679;28;20044;-41
2023/05/07 08:01:45;;;;;;;13.57;8.27;;;17.10;99.90;;;;;;5099598;28;20103;-44
2023/05/07 08:04:10;;;;;;;15.63;8.40;;;17.10;99.90;;;;;;5107957;28;20042;-45
2023/05/07 08:06:36;;;;;;;17.90;8.98;;;17.20;99.90;;;;;;5104159;28;20028;-44
2023/05/07 08:09:02;;;;;;;15.75;8.73;;;17.20;99.90;;;;;;5103379;28;20024;-43
2023/05/07 08:11:28;;;;;;;15.63;8.57;;;17.30;99.90;;;;;;5092673;28;20396;-36
2023/05/07 08:13:54;;;;;;;14.73;9.68;;;17.30;99.90;;;;;;5094346;28;20032;-41
2023/05/07 08:16:20;;;;;;;15.70;8.23;;;17.30;99.90;;;;;;5092935;28;20031;-41
2023/05/07 08:18:46;;;;;;;9.30;6.63;;;17.40;99.90;;;;;;5097393;28;20081;-44
2023/05/07 08:21:11;;;;;;;12.40;7.70;;;17.30;99.90;;;;;;5106449;28;20020;-50
2023/05/07 08:23:37;;;;;;;10.82;7.80;;;17.30;99.90;;;;;;5101360;28;20047;-41
2023/05/07 08:26:03;;;;;;;15.27;8.10;;;17.40;99.90;;;;;;5103191;28;20094;-43
2023/05/07 08:28:28;;;;;;;12.93;7.80;;;17.40;99.90;;;;;;5104766;28;20099;-41
2023/05/07 08:30:56;;;;;;;14.55;8.57;;;17.50;99.90;;;;;;5090814;28;20035;-43
2023/05/07 08:33:22;;;;;;;11.00;7.88;;;17.70;99.90;;;;;;5093151;28;20467;-42
2023/05/07 08:35:47;;;;;;;13.70;9.32;;;18.10;99.90;;;;;;5092840;28;20032;-60
2023/05/07 08:38:13;;;;;;;10.73;7.25;;;18.40;99.90;;;;;;5106604;28;20020;-41
2023/05/07 08:40:40;;;;;;;11.82;7.20;;;18.70;99.90;;;;;;5113135;28;20077;-41
2023/05/07 08:43:07;;;;;;;14.25;7.00;;;19.10;99.90;;;;;;5113127;28;20035;-41
2023/05/07 08:45:37;;;;;;;13.25;7.07;;;19.40;99.90;;;;;;5093614;28;20026;-39
2023/05/07 08:48:09;;;;;;;8.38;6.35;;;19.50;99.90;;;;;;5093078;28;20028;-40
2023/05/07 08:50:38;;;;;;;10.85;6.32;;;19.80;99.90;;;;;;5104953;28;20472;-40
2023/05/07 08:53:04;;;;;;;9.13;6.22;;;20.10;99.90;;;;;;5100695;28;20111;-40
2023/05/07 08:55:30;;;;;;;8.77;6.10;;;20.40;99.90;;;;;;5095121;28;20507;-41
2023/05/07 08:57:56;;;;;;;7.50;5.47;;;20.60;99.90;;;;;;5096934;28;20051;-40
2023/05/07 09:00:22;;;;;;;7.40;5.68;;;20.80;99.90;;;;;;5113112;28;20084;-41
2023/05/07 09:02:48;;;;;;;9.63;6.10;;;20.80;99.90;;;;;;5105907;28;20111;-43
2023/05/07 09:05:13;;;;;;;10.00;6.05;;;20.70;99.90;;;;;;5090873;28;20496;-41
2023/05/07 09:07:39;;;;;;;9.43;5.60;;;20.60;99.90;;;;;;5097856;28;20019;-42
2023/05/07 09:10:06;;;;;;;9.25;5.72;;;20.50;99.90;;;;;;5112901;28;20047;-43
2023/05/07 09:12:32;;;;;;;6.07;4.67;;;20.20;99.90;;;;;;5111022;28;20062;-43
2023/05/07 09:14:59;;;;;;;8.63;5.15;;;19.90;99.90;;;;;;5112930;28;20440;-39
2023/05/07 09:17:24;;;;;;;7.13;5.47;;;19.70;99.90;;;;;;5113387;28;20106;-42
2023/05/07 09:19:50;;;;;;;12.90;5.63;;;19.60;99.90;;;;;;5115967;28;20078;-41
2023/05/07 09:22:16;;;;;;;8.45;5.20;;;19.60;99.90;;;;;;5098129;28;20495;-41
2023/05/07 09:24:47;;;;;;;6.30;4.63;;;19.80;99.90;;;;;;5099055;28;20020;-41
2023/05/07 09:27:13;;;;;;;9.63;5.93;;;19.80;99.90;;;;;;5095608;28;20153;-40
2023/05/07 09:29:39;;;;;;;7.88;5.35;;;19.90;99.90;;;;;;5101432;28;20064;-41
2023/05/07 09:32:08;;;;;;;7.75;6.30;;;19.90;99.90;;;;;;5113663;28;20024;-40
2023/05/07 09:34:35;;;;;;;8.13;5.72;;;19.80;99.90;;;;;;5108185;28;20028;-42
2023/05/07 09:37:04;;;;;;;12.23;6.28;;;19.90;99.90;;;;;;5099205;28;20027;-47
2023/05/07 09:39:44;;;;;;;9.20;6.13;;;20.00;99.90;;;;;;5116709;27;20478;-43
2023/05/07 09:42:11;;;;;;;7.35;6.28;;;19.90;99.90;;;;;;5105418;27;20031;-42
2023/05/07 09:44:37;;;;;;;11.02;6.25;;;19.80;99.90;;;;;;5099266;28;20073;-42
2023/05/07 09:47:05;;;;;;;8.93;6.43;;;19.80;99.90;;;;;;5112285;28;20081;-40
2023/05/07 09:49:35;;;;;;;10.85;6.85;;;20.00;99.90;;;;;;5115938;28;20491;-44
2023/05/07 09:52:02;;;;;;;8.40;6.25;;;20.10;99.90;;;;;;5110735;28;20102;-41
2023/05/07 09:54:29;;;;;;;21.10;7.93;;;20.20;99.90;;;;;;5099784;28;20027;-38
2023/05/07 09:56:55;;;;;;;8.35;6.45;;;20.20;99.90;;;;;;5104602;28;20492;-39
2023/05/07 09:59:22;;;;;;;8.52;6.47;;;20.40;99.90;;;;;;5109971;28;20073;-40
2023/05/07 10:01:48;;;;;;;11.30;6.13;;;20.40;99.90;;;;;;5108357;28;20428;-43
2023/05/07 10:04:15;;;;;;;10.43;6.67;;;20.80;99.90;;;;;;5109984;28;20020;-38
2023/05/07 10:06:42;;;;;;;11.98;5.43;;;21.20;99.90;;;;;;5110046;28;20032;-40
2023/05/07 10:09:08;;;;;;;;;;;21.20;99.90;;;;;;5102161;28;20054;-42
2023/05/07 10:11:35;;;;;;;11.50;5.53;;;21.20;99.90;;;;;;5109027;28;19911;-38
2023/05/07 10:14:05;;;;;;;10.27;4.73;;;21.30;99.90;;;;;;5109097;28;20019;-38
2023/05/07 10:16:36;;;;;;;8.27;5.10;;;21.40;99.90;;;;;;5114933;28;20068;-41
2023/05/07 10:19:04;;;;;;;6.47;4.82;;;21.50;99.90;;;;;;5110662;28;20019;-40
2023/05/07 10:21:33;;;;;;;7.63;5.30;;;21.40;99.90;;;;;;5113602;27;20035;-42
2023/05/07 10:24:05;;;;;;;16.73;5.35;;;21.40;99.90;;;;;;5113011;28;20492;-40
2023/05/07 10:26:32;;;;;;;5.97;4.10;;;21.70;99.90;;;;;;5109126;28;20044;-41
2023/05/07 10:29:18;;;;;;;7.43;4.55;;;22.10;99.90;;;;;;5101560;28;20020;-39
2023/05/07 10:31:44;;;;;;;7.20;3.78;;;22.20;99.90;;;;;;5106533;28;20491;-41
2023/05/07 10:34:16;;;;;;;5.93;3.42;;;22.10;99.90;;;;;;5108755;28;20059;-41
2023/05/07 10:36:43;;;;;;;4.53;3.38;;;22.20;99.90;;;;;;5114945;28;20020;-40
2023/05/07 10:39:09;;;;;;;5.88;2.63;;;22.10;99.90;;;;;;5101523;27;20103;-39
2023/05/07 10:41:35;;;;;;;4.28;3.58;;;22.00;99.90;;;;;;5109187;28;20527;-40
2023/05/07 10:44:02;;;;;;;4.90;3.05;;;21.90;99.90;;;;;;5105149;28;20149;-38
2023/05/07 10:46:27;;;;;;;3.65;2.80;;;21.90;99.90;;;;;;5102450;28;20031;-40
2023/05/07 10:49:11;;;;;;;6.88;2.78;;;21.90;99.90;;;;;;5104868;28;20019;-40
2023/05/07 10:51:37;;;;;;;6.28;2.35;;;21.90;99.90;;;;;;5113528;28;20027;-38
2023/05/07 10:54:12;;;;;;;8.43;3.00;;;22.00;99.90;;;;;;5114665;28;20056;-40
2023/05/07 10:56:39;;;;;;;2.95;2.55;;;21.90;99.90;;;;;;5099516;28;20035;-40
2023/05/07 10:59:33;;;;;;;2.70;2.05;;;21.90;99.90;;;;;;5095505;28;20125;-36
2023/05/07 11:02:03;;;;;;;2.15;1.95;;;21.70;99.90;;;;;;5104127;28;20023;-38
2023/05/07 11:04:31;;;;;;;5.53;2.80;;;21.70;99.90;;;;;;5097147;28;20021;-40
2023/05/07 11:07:08;;;;;;;3.78;2.20;;;21.70;99.90;;;;;;5094333;28;20024;-39
2023/05/07 11:09:52;;;;;;;2.80;2.20;;;21.70;99.90;;;;;;5099123;28;20551;-39
2023/05/07 11:12:36;;;;;;;8.35;2.88;;;21.90;99.90;;;;;;5100409;28;20032;-39
2023/05/07 11:15:12;;;;;;;3.17;2.58;;;22.00;99.90;;;;;;5109036;28;20375;-40
2023/05/07 11:17:59;;;;;;;5.95;2.78;;;22.20;99.90;;;;;;5104465;28;20024;-39
2023/05/07 11:20:43;;;;;;;6.90;3.00;;;22.30;99.90;;;;;;5104804;28;20443;-41
2023/05/07 11:23:34;;;;;;;3.13;2.58;;;22.30;99.90;;;;;;5114146;28;20083;-39
2023/05/07 11:26:06;;;;;;;8.05;3.00;;;22.40;99.90;;;;;;5113839;28;20070;-38
2023/05/07 11:28:40;;;;;;;5.55;3.33;;;22.20;99.90;;;;;;5112511;28;20040;-38
2023/05/07 11:31:06;;;;;;;4.50;3.45;;;22.20;99.90;;;;;;5112975;28;20542;-39
2023/05/07 11:33:32;;;;;;;4.80;2.40;;;21.90;99.90;;;;;;5106171;28;20099;-37
2023/05/07 11:35:59;;;;;;;6.28;3.47;;;21.90;99.90;;;;;;5099013;28;20023;-38
2023/05/07 11:38:25;;;;;;;3.92;2.95;;;22.20;99.90;;;;;;5102338;28;20028;-39
2023/05/07 11:41:00;;;;;;;5.40;3.80;;;22.20;99.90;;;;;;5113611;28;20035;-41
2023/05/07 11:43:26;;;;;;;4.95;3.22;;;22.30;99.90;;;;;;5111423;28;20072;-39
2023/05/07 11:45:52;;;;;;;6.60;2.97;;;22.40;99.90;;;;;;5110804;28;20482;-39
2023/05/07 11:48:18;;;;;;;5.75;3.50;;;22.50;99.90;;;;;;5093949;28;20027;-40
2023/05/07 11:50:51;;;;;;;4.25;2.80;;;22.70;99.90;;;;;;5102876;28;20034;-40
2023/05/07 11:53:17;;;;;;;6.13;2.47;;;23.00;99.90;;;;;;5098644;28;20040;-40
2023/05/07 11:55:43;;;;;;;5.93;2.58;;;23.10;99.90;;;;;;5098886;27;20135;-39
2023/05/07 11:58:12;;;;;;;4.43;2.17;;;23.20;99.90;;;;;;5090805;28;20086;-38
2023/05/07 12:00:37;;;;;;;;;;;23.40;99.90;;;;;;5093139;28;20141;-38
2023/05/07 12:03:06;;;;;;;5.70;2.65;;;23.50;99.90;;;;;;5098722;28;19918;-38
2023/05/07 12:05:32;;;;;;;4.15;2.20;;;23.50;99.90;;;;;;5113333;28;20102;-38
2023/05/07 12:07:57;;;;;;;4.70;1.58;;;23.40;99.90;;;;;;5113427;28;20055;-39
2023/05/07 12:10:24;;;;;;;4.07;2.35;;;23.20;99.90;;;;;;5113129;28;20077;-40
2023/05/07 12:12:50;;;;;;;7.45;2.40;;;22.90;99.90;;;;;;5113617;28;20034;-38
2023/05/07 12:15:17;;;;;;;3.00;2.10;;;22.90;99.90;;;;;;5112892;28;20019;-57
2023/05/07 12:17:43;;;;;;;2.83;2.50;;;22.70;99.90;;;;;;5111346;28;20077;-40
2023/05/07 12:20:10;;;;;;;7.10;3.20;;;22.70;99.90;;;;;;5100824;28;20028;-40
2023/05/07 12:22:36;;;;;;;6.43;3.13;;;22.90;99.90;;;;;;5113273;28;20027;-39
2023/05/07 12:25:02;;;;;;;7.80;3.33;;;23.10;99.90;;;;;;5098353;28;20024;-38
2023/05/07 12:27:28;;;;;;;6.13;3.33;;;23.10;99.90;;;;;;5092913;28;20059;-39
2023/05/07 12:29:54;;;;;;;8.00;3.25;;;23.20;99.90;;;;;;5091562;28;20024;-40
2023/05/07 12:32:21;;;;;;;7.47;4.30;;;23.10;99.90;;;;;;5092864;28;20063;-39
2023/05/07 12:34:50;;;;;;;5.13;3.80;;;23.20;99.90;;;;;;5092783;28;20028;-41
2023/05/07 12:37:16;;;;;;;10.10;4.35;;;23.30;99.90;;;;;;5102631;28;20036;-54
2023/05/07 12:39:48;;;;;;;6.82;3.75;;;23.40;99.90;;;;;;5092936;28;20029;-43